Time;durP1;ratioP1;P1;durP2;ratioP2;P2;SDS_P1;SDS_P2;PMS_P1;PMS_P2;Temp;Humidity;BMP_temperature;BMP_pressure;BME280_temperature;BME280_humidity;BME280_pressure;Samples;Min_cycle;Max_cycle;Signal;HPM_P1;HPM_P2
2022/04/15 00:01:43;;;;;;;;;;;;;;;13.28;51.18;101147.88;5073304;28;20052;-86
2022/04/15 00:04:27;;;;;;;;;;;;;;;13.27;51.28;101146.25;5054060;28;19916;-85
2022/04/15 00:07:12;;;;;;;20.83;9.07;;;;;;;12.97;52.20;101149.94;5073854;28;20384;-85
2022/04/15 00:09:57;;;;;;;17.95;8.10;;;;;;;12.66;53.30;101136.41;5079446;28;20043;-85
2022/04/15 00:13:41;;;;;;;18.05;7.95;;;;;;;12.47;53.99;101149.53;5075919;28;20115;-85
2022/04/15 00:16:29;;;;;;;19.95;8.77;;;;;;;12.38;54.44;101152.25;5080514;28;20043;-87
2022/04/15 00:19:14;;;;;;;24.90;9.75;;;;;;;12.33;55.22;101155.13;5079606;28;20127;-87
2022/04/15 00:21:59;;;;;;;17.38;7.22;;;;;;;12.59;54.48;101153.28;5077985;28;20044;-87
2022/04/15 00:24:44;;;;;;;18.88;7.72;;;;;;;12.42;54.76;101142.31;5079517;28;20401;-86
2022/04/15 00:27:28;;;;;;;19.20;9.45;;;;;;;12.38;54.95;101142.13;5079364;28;20047;-86
2022/04/15 00:30:13;;;;;;;22.10;9.15;;;;;;;12.53;55.09;101143.63;5079101;28;20240;-86
2022/04/15 00:33:58;;;;;;;23.70;9.38;;;;;;;12.60;54.45;101143.13;5073110;28;20523;-88
2022/04/15 00:36:42;;;;;;;30.83;10.57;;;;;;;12.73;54.16;101137.56;5073336;28;20040;-86
2022/04/15 00:39:27;;;;;;;21.80;9.57;;;;;;;12.85;54.01;101150.56;5078836;28;20040;-86
2022/04/15 00:42:12;;;;;;;22.25;9.95;;;;;;;12.78;54.12;101136.59;5076597;28;20056;-85
2022/04/15 00:44:58;;;;;;;24.65;10.05;;;;;;;12.47;54.80;101133.97;5078983;28;20047;-87
2022/04/15 00:47:53;;;;;;;23.20;10.32;;;;;;;12.63;54.54;101132.41;5079048;28;20045;-87
2022/04/15 00:50:39;;;;;;;23.07;9.67;;;;;;;12.54;54.12;101125.31;5078648;28;20040;-87
2022/04/15 00:53:38;;;;;;;21.35;9.00;;;;;;;12.33;55.01;101122.38;5082398;22;20048;-76
2022/04/15 00:56:29;;;;;;;26.50;9.32;;;;;;;12.58;54.77;101124.38;5014733;28;20049;-72
2022/04/15 00:59:14;;;;;;;26.40;11.68;;;;;;;12.54;55.02;101128.06;5021377;28;20053;-74
2022/04/15 01:02:01;;;;;;;27.85;9.23;;;;;;;12.69;54.41;101131.13;5044287;28;20049;-72
2022/04/15 01:04:51;;;;;;;24.88;9.77;;;;;;;12.56;54.74;101123.88;5004687;28;20049;-71
2022/04/15 01:07:38;;;;;;;25.75;10.05;;;;;;;12.59;54.55;101115.06;4973624;28;20054;-72
2022/04/15 01:10:26;;;;;;;24.38;9.73;;;;;;;12.34;55.23;101119.31;4991521;28;20041;-71
2022/04/15 01:13:12;;;;;;;20.77;11.02;;;;;;;12.42;55.52;101125.94;5012440;28;20464;-71
2022/04/15 01:15:57;;;;;;;20.50;9.60;;;;;;;12.44;55.57;101120.97;5000009;28;20485;-73
2022/04/15 01:18:42;;;;;;;13.95;7.35;;;;;;;12.28;55.77;101128.78;5012285;28;20064;-72
2022/04/15 01:21:31;;;;;;;22.55;8.50;;;;;;;11.94;56.78;101121.28;5007928;28;20053;-72
2022/04/15 01:24:16;;;;;;;20.00;9.48;;;;;;;11.56;57.39;101125.53;5012163;28;20053;-72
2022/04/15 01:27:02;;;;;;;40.90;9.88;;;;;;;11.64;57.79;101132.16;4998628;28;20057;-73
2022/04/15 01:29:46;;;;;;;37.28;10.30;;;;;;;11.62;57.91;101129.75;5001799;28;20044;-74
2022/04/15 01:32:31;;;;;;;30.83;10.68;;;;;;;11.39;58.42;101125.44;4973176;28;20109;-74
2022/04/15 01:35:19;;;;;;;29.98;11.50;;;;;;;11.34;58.73;101128.28;4959801;28;20047;-72
2022/04/15 01:38:07;;;;;;;27.00;10.38;;;;;;;11.62;57.73;101132.47;4973042;28;20051;-72
2022/04/15 01:40:52;;;;;;;27.63;10.65;;;;;;;11.71;57.40;101127.88;4981723;28;20026;-73
2022/04/15 01:43:37;;;;;;;;;;;;;;;11.69;57.70;101121.91;5013278;28;20641;-72
2022/04/15 01:46:21;;;;;;;22.88;9.73;;;;;;;11.75;57.39;101123.44;5007891;28;19913;-72
2022/04/15 01:49:06;;;;;;;19.48;8.75;;;;;;;12.01;56.60;101120.84;5014786;28;20045;-73
2022/04/15 01:51:50;;;;;;;14.90;7.22;;;;;;;12.08;56.23;101125.84;5016213;28;20057;-73
2022/04/15 01:54:36;;;;;;;15.80;7.75;;;;;;;11.79;57.44;101120.88;5015848;28;20049;-72
2022/04/15 01:57:21;;;;;;;21.63;9.88;;;;;;;11.74;57.06;101118.28;5006879;28;20121;-73
2022/04/15 02:00:07;;;;;;;14.75;7.65;;;;;;;11.71;57.45;101122.44;4995975;28;20057;-72
2022/04/15 02:02:57;;;;;;;22.52;10.38;;;;;;;11.66;57.36;101125.28;4996317;28;20057;-73
2022/04/15 02:05:42;;;;;;;19.42;7.78;;;;;;;11.66;58.17;101130.72;5009103;28;20497;-71
2022/04/15 02:08:27;;;;;;;19.88;9.93;;;;;;;11.49;58.33;101130.63;5002838;28;20659;-71
2022/04/15 02:11:12;;;;;;;17.63;8.60;;;;;;;11.61;57.65;101133.59;5015511;28;20125;-72
2022/04/15 02:13:57;;;;;;;19.90;8.85;;;;;;;11.43;58.09;101131.84;4999387;28;20046;-72
2022/04/15 02:16:42;;;;;;;16.30;7.03;;;;;;;11.66;57.88;101130.72;4996069;28;20437;-72
2022/04/15 02:19:27;;;;;;;24.20;10.63;;;;;;;11.37;58.86;101124.94;4995775;28;20410;-72
2022/04/15 02:22:12;;;;;;;19.92;8.48;;;;;;;11.40;58.92;101127.03;4995911;28;20046;-72
2022/04/15 02:24:57;;;;;;;18.70;7.68;;;;;;;11.73;58.11;101127.59;4981724;28;20406;-72
2022/04/15 02:27:44;;;;;;;16.30;7.75;;;;;;;11.69;57.96;101121.13;5015267;28;20061;-72
2022/04/15 02:30:28;;;;;;;21.02;9.45;;;;;;;11.32;59.44;101120.44;4995635;28;20405;-71
2022/04/15 02:33:15;;;;;;;23.85;7.95;;;;;;;11.19;60.08;101126.72;5011133;28;20417;-71
2022/04/15 02:36:00;;;;;;;34.35;11.10;;;;;;;11.26;59.36;101124.41;4996443;28;20405;-71
2022/04/15 02:38:45;;;;;;;31.27;8.35;;;;;;;11.15;60.07;101120.31;4995640;28;20046;-71
2022/04/15 02:41:30;;;;;;;26.08;11.55;;;;;;;11.32;59.04;101125.88;4995623;28;20053;-71
2022/04/15 02:44:15;;;;;;;18.90;7.88;;;;;;;11.04;59.70;101124.38;5004705;28;20045;-71
2022/04/15 02:47:00;;;;;;;23.10;10.13;;;;;;;10.80;60.84;101124.66;5015190;28;20117;-71
2022/04/15 02:49:45;;;;;;;20.40;10.48;;;;;;;10.86;60.88;101130.78;5006581;28;20436;-71
2022/04/15 02:52:33;;;;;;;25.05;8.88;;;;;;;10.87;60.66;101129.69;5015023;28;20397;-72
2022/04/15 02:55:18;;;;;;;25.38;9.57;;;;;;;11.01;60.49;101128.53;5014752;28;20057;-72
2022/04/15 02:58:03;;;;;;;19.88;7.75;;;;;;;11.33;59.44;101130.19;5014957;28;20057;-71
2022/04/15 03:00:48;;;;;;;19.73;7.80;;;;;;;11.22;59.70;101125.31;5014977;28;20125;-71
2022/04/15 03:03:34;;;;;;;;;;;;;;;11.06;60.77;101128.41;5015149;28;20057;-70
2022/04/15 03:06:19;;;;;;;26.25;10.48;;;;;;;11.32;59.95;101125.88;4977129;28;19914;-71
2022/04/15 03:09:04;;;;;;;25.30;7.47;;;;;;;11.13;60.23;101133.41;4979173;28;20050;-71
2022/04/15 03:11:49;;;;;;;25.48;7.55;;;;;;;11.02;60.73;101127.41;4977437;28;20074;-72
2022/04/15 03:14:34;;;;;;;18.88;8.50;;;;;;;10.95;61.45;101126.22;4983396;28;20044;-72
2022/04/15 03:17:19;;;;;;;;;;;;;;;10.92;61.58;101119.47;5015321;28;20048;-71
2022/04/15 03:20:05;;;;;;;33.75;9.30;;;;;;;10.98;61.80;101125.59;5014330;28;19921;-71
2022/04/15 03:22:50;;;;;;;25.38;10.20;;;;;;;11.00;61.65;101117.94;5014502;28;20052;-71
2022/04/15 03:25:34;;;;;;;22.67;10.00;;;;;;;11.17;60.68;101117.28;4990884;28;20042;-71
2022/04/15 03:28:19;;;;;;;18.38;8.07;;;;;;;11.39;60.35;101128.16;4994848;28;20050;-71
2022/04/15 03:31:05;;;;;;;21.77;7.55;;;;;;;11.37;60.18;101127.66;4994658;28;20053;-72
2022/04/15 03:33:50;;;;;;;20.33;8.63;;;;;;;11.28;60.11;101113.16;4994701;28;20053;-72
2022/04/15 03:36:35;;;;;;;17.52;8.95;;;;;;;11.31;60.27;101123.47;5008885;28;20053;-72
2022/04/15 03:39:19;;;;;;;15.88;9.48;;;;;;;10.98;60.98;101114.72;5013893;28;20053;-72
2022/04/15 03:42:07;;;;;;;28.42;8.57;;;;;;;11.12;60.58;101108.09;5000971;28;20060;-73
2022/04/15 03:44:51;;;;;;;25.35;9.40;;;;;;;10.98;60.70;101114.72;4975401;28;20053;-72
2022/04/15 03:47:37;;;;;;;16.10;7.18;;;;;;;10.72;62.35;101122.66;4994409;28;20414;-72
2022/04/15 03:50:22;;;;;;;25.55;10.40;;;;;;;10.45;63.38;101122.72;4989698;28;20683;-72
2022/04/15 03:53:08;;;;;;;21.08;8.57;;;;;;;10.55;62.69;101126.03;5004358;28;20038;-72
2022/04/15 03:55:53;;;;;;;16.83;6.35;;;;;;;10.36;63.60;101121.81;5013969;28;20069;-72
2022/04/15 03:58:37;;;;;;;16.27;7.53;;;;;;;10.47;63.09;101139.50;5013635;28;20516;-72
2022/04/15 04:01:24;;;;;;;17.25;7.93;;;;;;;10.47;63.31;101123.19;5013730;28;20524;-71
2022/04/15 04:04:09;;;;;;;24.33;9.65;;;;;;;10.81;62.03;101131.72;5002588;28;20050;-73
2022/04/15 04:06:54;;;;;;;28.38;9.15;;;;;;;10.51;63.02;101126.94;4993587;28;20316;-73
2022/04/15 04:09:39;;;;;;;36.85;10.52;;;;;;;10.30;63.57;101121.13;4993642;28;20402;-72
2022/04/15 04:12:23;;;;;;;26.27;6.55;;;;;;;10.21;63.73;101133.78;4993915;28;20410;-73
2022/04/15 04:15:10;;;;;;;17.38;9.00;;;;;;;9.96;64.63;101132.34;4996350;28;20058;-73
2022/04/15 04:17:56;;;;;;;21.38;9.18;;;;;;;10.15;64.25;101138.50;4993856;28;20053;-72
2022/04/15 04:20:41;;;;;;;28.33;10.18;;;;;;;10.30;62.90;101132.00;4993381;28;20057;-72
2022/04/15 04:23:26;;;;;;;17.08;9.15;;;;;;;10.14;63.90;101128.75;4999567;28;20505;-74
2022/04/15 04:26:11;;;;;;;18.83;7.95;;;;;;;10.03;64.00;101137.38;5002209;28;20097;-73
2022/04/15 04:28:56;;;;;;;16.42;7.35;;;;;;;10.14;63.76;101145.03;5011244;28;20069;-72
2022/04/15 04:31:41;;;;;;;18.05;6.97;;;;;;;10.55;62.55;101149.69;4981405;28;20053;-73
2022/04/15 04:34:26;;;;;;;;;;;;;;;10.63;61.99;101148.97;5005334;28;20114;-73
2022/04/15 04:37:10;;;;;;;31.77;9.30;;;;;;;10.55;62.22;101155.94;5013047;28;19913;-72
2022/04/15 04:39:55;;;;;;;43.63;8.85;;;;;;;10.32;62.86;101162.38;5029191;28;20053;-72
2022/04/15 04:42:40;;;;;;;21.35;7.20;;;;;;;10.42;62.53;101166.81;4999438;28;20052;-72
2022/04/15 04:45:26;;;;;;;23.08;9.50;;;;;;;10.57;62.35;101169.22;5006433;28;20512;-72
2022/04/15 04:48:10;;;;;;;16.10;6.38;;;;;;;10.36;62.77;101168.03;5004680;28;20064;-72
2022/04/15 04:50:55;;;;;;;19.88;7.68;;;;;;;10.79;61.30;101166.56;5012742;28;20049;-72
2022/04/15 04:53:40;;;;;;;;;;;;;;;10.81;61.07;101169.00;5013103;28;20049;-71
2022/04/15 04:56:26;;;;;;;20.95;8.18;;;;;;;11.02;60.82;101172.88;5011578;28;19918;-71
2022/04/15 04:59:12;;;;;;;26.80;9.27;;;;;;;11.00;60.84;101177.81;5012486;28;20060;-69
2022/04/15 05:01:57;;;;;;;17.45;7.53;;;;;;;11.17;60.49;101177.16;5012653;28;20061;-70
2022/04/15 05:04:41;;;;;;;13.90;7.40;;;;;;;11.24;59.92;101172.06;5000626;28;20422;-71
2022/04/15 05:07:27;;;;;;;14.30;7.25;;;;;;;11.28;59.62;101173.06;4973625;28;20054;-71
2022/04/15 05:10:11;;;;;;;18.67;7.70;;;;;;;11.23;60.12;101174.00;5007818;28;20050;-71
2022/04/15 05:12:59;;;;;;;13.77;7.30;;;;;;;11.49;59.34;101183.16;5017943;28;20053;-70
2022/04/15 05:15:43;;;;;;;17.15;9.18;;;;;;;11.57;59.29;101179.72;5008155;28;20056;-71
2022/04/15 05:18:28;;;;;;;22.55;8.23;;;;;;;11.75;58.63;101183.38;4991988;28;20062;-71
2022/04/15 05:21:13;;;;;;;20.80;7.38;;;;;;;11.87;58.59;101186.34;4992881;28;20053;-72
2022/04/15 05:23:58;;;;;;;19.10;7.13;;;;;;;11.99;58.11;101188.47;4992863;28;20045;-71
2022/04/15 05:26:43;;;;;;;23.55;8.13;;;;;;;12.20;57.68;101192.25;4992556;28;20073;-71
2022/04/15 05:29:28;;;;;;;22.30;8.68;;;;;;;12.25;57.81;101194.03;4992121;28;20512;-71
2022/04/15 05:32:13;;;;;;;16.83;7.57;;;;;;;12.47;56.98;101195.91;4992886;28;20049;-72
2022/04/15 05:34:58;;;;;;;20.02;8.52;;;;;;;12.48;57.14;101194.78;4992753;28;20046;-71
2022/04/15 05:37:43;;;;;;;;;;;;;;;12.95;55.92;101195.88;4998682;28;20409;-71
2022/04/15 05:40:28;;;;;;;30.38;11.18;;;;;;;13.01;55.69;101200.03;5012051;28;20377;-71
2022/04/15 05:43:12;;;;;;;51.92;25.48;;;;;;;13.20;54.94;101195.94;4998202;28;20038;-72
2022/04/15 05:45:57;;;;;;;40.10;13.98;;;;;;;13.57;54.47;101204.56;5011365;28;20042;-71
2022/04/15 05:48:42;;;;;;;26.38;10.20;;;;;;;13.56;53.97;101201.03;5012017;28;20046;-71
2022/04/15 05:51:27;;;;;;;20.20;7.57;;;;;;;13.67;53.83;101212.44;5010213;28;20046;-71
2022/04/15 05:54:12;;;;;;;27.75;7.00;;;;;;;13.73;54.37;101210.34;5011397;28;20045;-72
2022/04/15 05:56:57;;;;;;;44.90;12.75;;;;;;;14.31;52.79;101216.00;5031558;28;20049;-72
2022/04/15 05:59:42;;;;;;;32.05;13.00;;;;;;;14.60;51.57;101214.44;4998500;28;20046;-72
2022/04/15 06:02:28;;;;;;;24.40;10.43;;;;;;;14.70;52.33;101220.34;5017879;28;20041;-72
2022/04/15 06:05:13;;;;;;;26.17;9.65;;;;;;;14.46;53.92;101223.69;5011882;28;20409;-72
2022/04/15 06:07:58;;;;;;;;;;;;;;;14.64;53.10;101226.31;5026871;28;20073;-72
2022/04/15 06:10:42;;;;;;;29.40;9.60;;;;;;;15.35;51.68;101221.66;5014262;28;19914;-72
2022/04/15 06:13:27;;;;;;;35.60;9.27;;;;;;;15.86;50.43;101225.09;4997374;28;20053;-72
2022/04/15 06:16:17;;;;;;;27.10;8.63;;;;;;;17.28;46.79;101233.28;4992965;28;20061;-74
2022/04/15 06:19:02;;;;;;;23.05;9.35;;;;;;;18.73;43.87;101240.84;4992227;28;20050;-74
2022/04/15 06:21:47;;;;;;;27.02;9.32;;;;;;;20.34;39.23;101238.28;4992226;28;20054;-74
2022/04/15 06:24:31;;;;;;;27.10;9.38;;;;;;;20.76;38.08;101234.63;4992394;28;20049;-72
2022/04/15 06:27:16;;;;;;;;;;;;;;;21.62;35.64;101231.88;4978300;28;20057;-72
2022/04/15 06:30:03;;;;;;;28.88;9.30;;;;;;;23.19;32.20;101234.88;4993931;28;19914;-73
2022/04/15 06:32:48;;;;;;;87.22;14.85;;;;;;;24.62;30.17;101227.34;4995651;28;20046;-71
2022/04/15 06:35:36;;;;;;;30.30;8.98;;;;;;;25.88;27.14;101223.81;4994613;28;20046;-71
2022/04/15 06:38:22;;;;;;;37.97;12.32;;;;;;;26.41;25.52;101231.03;4996719;28;20406;-71
2022/04/15 06:41:06;;;;;;;18.50;8.90;;;;;;;25.53;24.98;101227.56;4996303;28;20042;-71
2022/04/15 06:43:52;;;;;;;30.02;9.60;;;;;;;25.64;26.44;101230.31;4995973;28;20053;-72
2022/04/15 06:46:37;;;;;;;19.95;10.73;;;;;;;27.97;22.26;101233.72;4996729;28;20041;-71
2022/04/15 06:49:22;;;;;;;24.98;9.60;;;;;;;27.61;22.95;101235.41;4990308;28;20046;-71
2022/04/15 06:52:07;;;;;;;;;;;;;;;28.34;21.61;101229.19;5010215;28;20053;-71
2022/04/15 06:54:51;;;;;;;21.95;10.43;;;;;;;28.25;22.03;101226.91;4991534;28;19914;-72
2022/04/15 06:57:36;;;;;;;22.05;8.70;;;;;;;28.32;22.26;101221.19;5002744;28;20034;-74
2022/04/15 07:00:22;;;;;;;22.13;9.77;;;;;;;26.63;22.45;101216.50;4990922;28;20049;-74
2022/04/15 07:03:12;;;;;;;23.35;9.55;;;;;;;27.50;22.51;101226.38;4995561;28;20049;-74
2022/04/15 07:05:57;;;;;;;26.17;9.63;;;;;;;29.36;19.93;101223.72;4987041;28;20049;-72
2022/04/15 07:08:42;;;;;;;19.42;9.55;;;;;;;29.81;19.36;101231.59;4995223;28;20157;-73
2022/04/15 07:11:26;;;;;;;21.42;9.57;;;;;;;32.11;16.75;101242.28;4975590;28;20053;-73
2022/04/15 07:14:11;;;;;;;25.58;9.95;;;;;;;32.69;16.44;101248.44;4975567;28;20054;-74
2022/04/15 07:16:56;;;;;;;27.83;9.40;;;;;;;32.04;16.15;101243.31;4975512;28;20057;-73
2022/04/15 07:19:41;;;;;;;28.08;9.98;;;;;;;33.79;14.60;101247.25;4994766;28;20070;-74
2022/04/15 07:22:26;;;;;;;19.40;8.80;;;;;;;33.29;15.61;101248.34;4994844;28;20524;-72
2022/04/15 07:25:12;;;;;;;33.15;9.52;;;;;;;33.70;15.39;101248.00;4994725;28;20061;-72
2022/04/15 07:27:57;;;;;;;26.02;8.48;;;;;;;34.31;14.89;101247.19;4994945;28;20049;-73
2022/04/15 07:30:42;;;;;;;20.23;8.20;;;;;;;32.94;15.77;101247.56;4994768;28;20049;-74
2022/04/15 07:33:27;;;;;;;21.77;8.05;;;;;;;33.14;16.51;101244.44;4994761;28;20157;-74
2022/04/15 07:39:16;;;;;;;18.70;9.27;;;;;;;33.26;14.52;101235.97;5020709;28;20049;-71
2022/04/15 07:42:01;;;;;;;19.67;8.90;;;;;;;36.25;12.44;101248.16;5002794;28;20056;-71
2022/04/15 07:44:46;;;;;;;15.40;8.63;;;;;;;33.22;13.93;101228.88;4994141;28;20058;-71
2022/04/15 07:47:31;;;;;;;22.67;9.50;;;;;;;33.99;13.53;101227.91;5069118;23;20075;-91
2022/04/15 07:50:21;;;;;;;20.95;8.02;;;;;;;36.77;11.64;101228.94;5061651;28;20040;-91
2022/04/15 07:53:06;;;;;;;12.10;7.43;;;;;;;36.18;11.24;101225.03;5069452;28;20063;-88
2022/04/15 07:55:51;;;;;;;16.65;8.23;;;;;;;38.31;10.25;101225.69;5059927;28;20098;-88
2022/04/15 07:58:36;;;;;;;18.40;9.98;;;;;;;38.10;10.09;101227.72;5046051;28;20044;-90
2022/04/15 08:01:21;;;;;;;18.20;9.05;;;;;;;37.80;10.42;101224.16;5050923;28;20052;-90
2022/04/15 08:04:06;;;;;;;31.52;10.35;;;;;;;36.86;11.30;101228.88;5041239;28;20243;-90
2022/04/15 08:06:52;;;;;;;19.52;8.90;;;;;;;36.36;11.45;101222.91;5037312;28;20053;-91
2022/04/15 08:09:39;;;;;;;19.30;9.48;;;;;;;36.40;11.30;101237.66;5046160;28;20524;-86
2022/04/15 08:12:23;;;;;;;18.05;9.57;;;;;;;29.90;19.60;101217.78;5055228;28;20059;-90
2022/04/15 08:15:08;;;;;;;19.33;9.38;;;;;;;27.24;27.13;101208.28;5046441;28;20064;-87
2022/04/15 08:17:53;;;;;;;30.80;10.38;;;;;;;26.39;26.21;101198.78;5041957;28;20056;-86
2022/04/15 08:20:38;;;;;;;19.08;9.57;;;;;;;25.95;25.67;101207.84;5052774;28;20036;-82
2022/04/15 08:23:23;;;;;;;32.00;9.40;;;;;;;25.17;24.92;101210.19;5052689;28;20048;-87
2022/04/15 08:26:09;;;;;;;22.90;10.02;;;;;;;24.89;26.94;101199.91;5055311;28;20048;-87
2022/04/15 08:28:54;;;;;;;25.63;9.35;;;;;;;24.60;28.36;101210.25;5050100;28;20053;-88
2022/04/15 08:31:39;;;;;;;20.88;8.57;;;;;;;24.36;25.09;101199.94;5050219;28;20040;-85
2022/04/15 08:34:24;;;;;;;19.92;9.15;;;;;;;23.13;27.04;101215.03;5063123;28;20048;-87
2022/04/15 08:37:09;;;;;;;29.13;9.80;;;;;;;23.41;28.13;101206.84;5056113;28;20047;-86
2022/04/15 08:39:54;;;;;;;17.75;8.40;;;;;;;23.49;26.32;101204.13;5068742;28;20075;-87
2022/04/15 08:42:41;;;;;;;19.98;9.68;;;;;;;23.24;26.88;101201.22;5059262;28;20052;-88
2022/04/15 08:45:27;;;;;;;20.58;8.20;;;;;;;23.91;24.06;101209.00;5049287;28;20051;-91
2022/04/15 08:48:12;;;;;;;26.98;8.80;;;;;;;23.98;24.94;101192.34;5050009;28;20048;-87
2022/04/15 08:50:59;;;;;;;19.17;8.73;;;;;;;23.61;25.42;101198.22;5061583;28;20051;-87
2022/04/15 08:53:46;;;;;;;17.05;8.63;;;;;;;23.52;26.91;101200.59;5069109;28;20067;-89
2022/04/15 08:56:31;;;;;;;14.48;7.70;;;;;;;23.02;26.47;101195.56;5072967;28;20072;-88
2022/04/15 08:59:16;;;;;;;17.45;7.93;;;;;;;23.43;26.48;101196.13;5052621;28;20405;-84
2022/04/15 09:02:01;;;;;;;16.90;8.18;;;;;;;23.31;27.36;101202.06;5056624;28;20048;-87
2022/04/15 09:04:46;;;;;;;18.65;7.25;;;;;;;23.13;26.55;101198.38;5073329;28;20515;-86
2022/04/15 09:07:34;;;;;;;24.70;9.30;;;;;;;22.72;27.33;101192.19;5046827;28;20516;-87
2022/04/15 09:10:18;;;;;;;16.40;8.20;;;;;;;23.26;27.58;101194.06;5047173;28;20048;-89
2022/04/15 09:13:04;;;;;;;16.55;8.75;;;;;;;23.87;27.78;101192.34;5061661;28;20044;-88
2022/04/15 09:15:49;;;;;;;20.15;9.35;;;;;;;24.08;26.68;101180.44;5046931;28;20056;-88
2022/04/15 09:18:37;;;;;;;20.48;8.77;;;;;;;23.50;27.06;101175.97;5047443;28;20067;-88
2022/04/15 09:21:24;;;;;;;23.58;9.50;;;;;;;23.35;27.56;101185.41;5036217;28;20078;-89
2022/04/15 09:24:10;;;;;;;21.92;8.65;;;;;;;24.10;25.80;101178.06;5047986;28;20058;-89
2022/04/15 09:26:55;;;;;;;20.48;9.75;;;;;;;23.46;26.86;101174.38;5057788;28;20515;-89
2022/04/15 09:29:40;;;;;;;25.70;9.68;;;;;;;24.06;27.74;101180.06;5055516;28;20056;-90
2022/04/15 09:32:27;;;;;;;21.48;9.55;;;;;;;24.61;26.36;101181.25;5045577;28;20040;-87
2022/04/15 09:35:16;;;;;;;21.67;9.77;;;;;;;24.90;25.95;101178.44;5049059;28;20056;-87
2022/04/15 09:38:03;;;;;;;68.30;11.82;;;;;;;24.89;26.51;101171.31;5049242;28;20048;-88
2022/04/15 09:40:48;;;;;;;21.95;9.32;;;;;;;24.48;26.52;101171.72;5045120;28;20049;-89
2022/04/15 09:43:32;;;;;;;23.00;9.25;;;;;;;24.79;25.89;101166.53;5047062;28;20052;-88
2022/04/15 09:46:17;;;;;;;31.25;10.05;;;;;;;24.92;25.94;101170.50;5044853;28;20048;-88
2022/04/15 09:49:08;;;;;;;19.60;9.98;;;;;;;25.33;24.78;101179.91;5057100;28;20044;-86
2022/04/15 09:51:54;;;;;;;21.35;9.63;;;;;;;25.28;25.95;101174.75;5060080;28;20098;-86
2022/04/15 09:54:43;;;;;;;23.95;10.57;;;;;;;30.95;18.41;101185.44;5061021;28;20063;-84
2022/04/15 09:57:33;;;;;;;24.88;11.15;;;;;;;37.30;12.40;101202.63;5047805;28;20317;-83
2022/04/15 10:00:19;;;;;;;23.33;10.55;;;;;;;40.10;10.67;101212.06;5059492;28;20029;-84
2022/04/15 10:03:08;;;;;;;27.92;12.48;;;;;;;39.98;10.30;101210.41;5056837;28;20041;-84
2022/04/15 10:05:56;;;;;;;27.20;11.80;;;;;;;42.46;8.35;101215.56;5064247;28;20040;-84
2022/04/15 10:08:42;;;;;;;29.17;12.63;;;;;;;39.45;10.49;101202.50;5063456;28;20051;-84
2022/04/15 10:11:27;;;;;;;27.67;12.43;;;;;;;41.48;8.76;101210.25;5075392;28;20044;-85
2022/04/15 10:14:13;;;;;;;23.48;11.57;;;;;;;41.30;9.59;101203.72;5065575;28;20516;-84
2022/04/15 10:16:59;;;;;;;24.20;11.02;;;;;;;41.34;9.05;101192.84;5062887;28;20059;-83
2022/04/15 10:19:45;;;;;;;20.55;11.68;;;;;;;41.21;9.51;101195.41;5075058;28;20052;-84
2022/04/15 10:22:31;;;;;;;21.73;10.23;;;;;;;40.90;9.05;101190.66;5065852;28;20047;-85
2022/04/15 10:25:15;;;;;;;23.30;10.75;;;;;;;40.33;9.55;101185.28;5063679;28;20063;-85
2022/04/15 10:28:09;;;;;;;20.17;10.65;;;;;;;43.43;7.85;101193.13;5075637;28;20051;-85
2022/04/15 10:31:13;;;;;;;23.80;11.23;;;;;;;42.30;8.29;101179.22;5066959;28;20048;-85
2022/04/15 10:34:12;;;;;;;22.15;10.52;;;;;;;42.68;7.83;101186.84;5064216;28;20059;-85
2022/04/15 10:36:57;;;;;;;23.02;10.32;;;;;;;42.98;7.83;101189.78;5063898;28;20416;-84
2022/04/15 10:39:48;;;;;;;21.60;10.35;;;;;;;42.61;8.11;101181.69;5046138;28;20048;-83
2022/04/15 10:42:33;;;;;;;20.50;10.30;;;;;;;43.17;8.06;101184.25;5046629;28;20072;-84
2022/04/15 10:45:25;;;;;;;20.70;9.60;;;;;;;46.29;5.86;101178.59;5043243;28;20043;-84
2022/04/15 10:48:10;;;;;;;21.88;11.35;;;;;;;42.73;7.88;101170.97;5046186;28;20051;-83
2022/04/15 10:50:56;;;;;;;20.98;10.50;;;;;;;43.36;8.04;101162.19;5062312;28;20059;-83
2022/04/15 10:53:42;;;;;;;21.42;10.00;;;;;;;43.40;7.05;101162.69;5058073;28;20064;-84
2022/04/15 10:56:27;;;;;;;20.35;9.80;;;;;;;45.44;6.31;101159.84;5049284;28;20051;-86
2022/04/15 11:02:16;;;;;;;23.02;10.65;;;;;;;46.71;5.83;101168.03;5072820;28;20044;-86
2022/04/15 11:05:01;;;;;;;19.60;10.45;;;;;;;44.86;6.72;101153.97;5054195;28;20048;-84
2022/04/15 11:07:57;;;;;;;19.13;10.68;;;;;;;43.16;7.50;101146.22;5054334;28;20551;-84
2022/04/15 11:10:59;;;;;;;19.85;11.00;;;;;;;44.60;6.64;101143.88;5046422;28;20519;-84
2022/04/15 11:13:46;;;;;;;20.75;10.57;;;;;;;45.93;6.09;101140.88;5057640;28;20071;-84
2022/04/15 11:16:47;;;;;;;21.00;10.05;;;;;;;45.48;6.28;101128.69;5055399;28;20056;-84
2022/04/15 11:19:32;;;;;;;20.33;10.90;;;;;;;46.19;6.26;101140.13;5066207;28;20048;-84
2022/04/15 11:22:17;;;;;;;21.70;10.45;;;;;;;46.75;5.81;101131.00;5045638;28;20417;-83
2022/04/15 11:25:02;;;;;;;20.95;10.20;;;;;;;43.38;7.12;101116.63;5046419;28;20051;-84
2022/04/15 11:27:47;;;;;;;20.08;10.85;;;;;;;43.88;7.27;101119.78;5040280;28;20420;-83
2022/04/15 11:30:32;;;;;;;21.75;10.13;;;;;;;45.90;6.14;101118.22;5061423;28;20043;-84
2022/04/15 11:33:17;;;;;;;21.05;11.77;;;;;;;48.06;5.37;101116.34;5046498;28;20068;-83
2022/04/15 11:36:03;;;;;;;;;;;;;;;45.28;6.33;101114.91;5043931;28;20528;-83
2022/04/15 11:38:49;;;;;;;;;;;;;;;43.77;7.51;101099.03;5064742;28;19913;-83
2022/04/15 11:41:33;;;;;;;;;;;;;;;45.16;6.73;101119.31;5046914;28;20304;-83
2022/04/15 11:44:18;;;;;;;;;;;;;;;46.43;6.11;101113.16;5057193;28;19912;-85
2022/04/15 11:47:23;;;;;;;;;;;;;;;45.94;6.17;101113.69;5051576;28;19913;-85
2022/04/15 11:50:08;;;;;;;;;;;;;;;45.17;6.66;101106.50;5047150;28;20296;-85
2022/04/15 11:53:04;;;;;;;;;;;;;;;47.15;5.85;101102.78;5047046;28;19913;-85
2022/04/15 11:55:53;;;;;;;;;;;;;;;48.99;4.96;101105.25;5044610;28;19912;-85
2022/04/15 11:58:41;;;;;;;26.00;12.02;;;;;;;42.97;7.59;101079.47;5032445;28;20410;-83
2022/04/15 12:01:28;;;;;;;27.38;11.50;;;;;;;42.88;7.92;101083.44;5049275;28;20413;-83
2022/04/15 12:04:12;;;;;;;24.98;11.88;;;;;;;41.23;8.72;101084.34;5049158;28;20043;-84
2022/04/15 12:06:58;;;;;;;30.40;12.07;;;;;;;42.54;8.20;101082.09;5042194;28;20055;-84
2022/04/15 12:09:45;;;;;;;32.20;11.90;;;;;;;37.23;11.65;101065.56;5046052;28;20048;-84
2022/04/15 12:12:31;;;;;;;24.63;12.13;;;;;;;41.39;8.96;101077.03;5053821;28;20049;-86
2022/04/15 12:15:41;;;;;;;22.02;12.20;;;;;;;42.78;8.37;101069.97;5046519;28;20043;-89
2022/04/15 12:18:26;;;;;;;22.83;11.73;;;;;;;42.31;8.27;101063.53;5044088;28;20052;-88
2022/04/15 12:21:11;;;;;;;26.92;11.20;;;;;;;42.61;8.23;101062.28;5059939;28;20052;-89
2022/04/15 12:24:17;;;;;;;26.40;10.98;;;;;;;42.65;8.15;101062.00;5062966;28;20520;-88
2022/04/15 12:27:04;;;;;;;22.17;11.23;;;;;;;43.98;7.24;101059.19;5061689;28;20039;-88
2022/04/15 12:29:51;;;;;;;26.45;10.23;;;;;;;46.27;6.28;101053.91;5054472;28;20052;-87
2022/04/15 12:32:36;;;;;;;22.42;10.57;;;;;;;44.89;6.94;101046.66;5035012;28;20039;-89
2022/04/15 12:35:24;;;;;;;17.23;10.38;;;;;;;42.73;7.75;101048.69;5054115;28;20060;-88
2022/04/15 12:38:09;;;;;;;21.38;10.02;;;;;;;41.34;8.65;101029.28;5047456;28;20044;-86
2022/04/15 12:41:38;;;;;;;21.52;10.52;;;;;;;42.37;7.88;101027.06;5059162;28;20063;-89
2022/04/15 12:44:29;;;;;;;33.67;10.07;;;;;;;42.44;7.71;101029.38;5059792;28;20048;-88
2022/04/15 12:47:15;;;;;;;17.15;9.07;;;;;;;42.94;7.58;101034.72;5059577;28;20055;-88
2022/04/15 12:50:23;;;;;;;22.52;9.45;;;;;;;40.05;9.26;101021.88;5058822;28;20044;-88
2022/04/15 12:53:18;;;;;;;16.30;7.10;;;;;;;41.01;8.34;101027.22;5061935;28;20055;-87
2022/04/15 12:56:13;;;;;;;12.75;7.10;;;;;;;41.96;7.76;101024.94;5058992;28;20047;-87
2022/04/15 12:58:58;;;;;;;12.70;7.53;;;;;;;39.22;9.01;101007.94;5062528;28;20051;-87